Time;durP1;ratioP1;P1;durP2;ratioP2;P2;SDS_P1;SDS_P2;PMS_P1;PMS_P2;Temp;Humidity;BMP_temperature;BMP_pressure;BME280_temperature;BME280_humidity;BME280_pressure;Samples;Min_cycle;Max_cycle;Signal;HPM_P1;HPM_P2
2021/07/10 00:00:08;;;;;;;12.10;8.02;;;;;;;;;;3584397;40;20039;-64
2021/07/10 00:02:33;;;;;;;16.30;8.87;;;;;;;;;;3582855;40;20033;-64
2021/07/10 00:04:59;;;;;;;17.30;9.10;;;;;;;;;;3582896;40;20072;-64
2021/07/10 00:07:24;;;;;;;15.13;8.30;;;;;;;;;;3584996;40;20047;-64
2021/07/10 00:09:49;;;;;;;14.88;8.98;;;;;;;;;;3583624;40;20445;-65
2021/07/10 00:12:14;;;;;;;10.77;7.67;;;;;;;;;;3586006;40;20064;-65
2021/07/10 00:14:40;;;;;;;12.07;8.53;;;;;;;;;;3583328;40;20782;-65
2021/07/10 00:17:05;;;;;;;17.95;9.10;;;;;;;;;;3592512;39;20379;-65
2021/07/10 00:19:30;;;;;;;14.18;7.70;;;;;;;;;;3590932;39;20024;-64
2021/07/10 00:21:56;;;;;;;16.40;7.97;;;;;;;;;;3585594;40;20080;-64
2021/07/10 00:24:21;;;;;;;12.60;8.00;;;;;;;;;;3584148;40;20048;-65
2021/07/10 00:26:46;;;;;;;12.13;7.63;;;;;;;;;;3584973;40;20036;-64
2021/07/10 00:29:11;;;;;;;14.83;8.10;;;;;;;;;;3583538;40;20304;-64
2021/07/10 00:31:37;;;;;;;16.73;9.02;;;;;;;;;;3584241;40;20670;-64
2021/07/10 00:34:02;;;;;;;13.70;8.07;;;;;;;;;;3585520;40;20032;-64
2021/07/10 00:36:27;;;;;;;14.23;8.03;;;;;;;;;;3585022;40;20129;-64
2021/07/10 00:38:53;;;;;;;22.75;9.15;;;;;;;;;;3584187;40;20278;-64
2021/07/10 00:41:18;;;;;;;13.73;8.63;;;;;;;;;;3585133;39;20054;-64
2021/07/10 00:43:43;;;;;;;18.53;9.87;;;;;;;;;;3586325;40;20051;-64
2021/07/10 00:46:09;;;;;;;15.73;9.83;;;;;;;;;;3586024;40;20024;-64
2021/07/10 00:48:34;;;;;;;17.87;9.40;;;;;;;;;;3593113;39;20671;-64
2021/07/10 00:51:01;;;;;;;16.00;10.20;;;;;;;;;;3587355;40;20051;-64
2021/07/10 00:53:26;;;;;;;21.92;9.27;;;;;;;;;;3585090;40;20141;-64
2021/07/10 00:55:52;;;;;;;16.30;9.35;;;;;;;;;;3587517;40;20680;-64
2021/07/10 00:58:17;;;;;;;16.08;9.90;;;;;;;;;;3585407;40;20781;-65
2021/07/10 01:00:44;;;;;;;53.17;28.00;;;;;;;;;;3586929;40;20036;-64
2021/07/10 01:03:10;;;;;;;18.60;11.60;;;;;;;;;;3586229;40;20521;-63
2021/07/10 01:05:37;;;;;;;17.33;10.43;;;;;;;;;;3592711;39;20035;-63
2021/07/10 01:08:02;;;;;;;27.50;11.80;;;;;;;;;;3585772;40;20032;-63
2021/07/10 01:10:28;;;;;;;27.77;12.50;;;;;;;;;;3585954;40;20117;-63
2021/07/10 01:12:53;;;;;;;33.50;11.93;;;;;;;;;;3586240;40;20072;-63
2021/07/10 01:15:18;;;;;;;22.93;13.37;;;;;;;;;;3587124;40;20051;-63
2021/07/10 01:17:45;;;;;;;21.10;12.18;;;;;;;;;;3585282;40;20045;-63
2021/07/10 01:20:11;;;;;;;21.20;12.88;;;;;;;;;;3586806;40;20052;-63
2021/07/10 01:22:36;;;;;;;24.57;14.13;;;;;;;;;;3587469;40;20033;-63
2021/07/10 01:25:01;;;;;;;29.47;13.80;;;;;;;;;;3586994;40;20274;-63
2021/07/10 01:27:26;;;;;;;27.93;14.93;;;;;;;;;;3585852;40;20036;-64
2021/07/10 01:29:51;;;;;;;37.30;15.80;;;;;;;;;;3588134;40;20024;-63
2021/07/10 01:32:17;;;;;;;29.83;15.27;;;;;;;;;;3587240;40;20031;-63
2021/07/10 01:34:42;;;;;;;60.35;19.77;;;;;;;;;;3585955;40;20035;-63
2021/07/10 01:37:07;;;;;;;31.97;15.73;;;;;;;;;;3587110;40;20029;-63
2021/07/10 01:39:32;;;;;;;27.43;15.00;;;;;;;;;;3585631;40;20301;-63
2021/07/10 01:41:58;;;;;;;39.53;17.67;;;;;;;;;;3586111;40;20375;-64
2021/07/10 01:44:23;;;;;;;49.63;18.47;;;;;;;;;;3586182;40;20052;-64
2021/07/10 01:46:48;;;;;;;29.70;16.13;;;;;;;;;;3595119;39;20028;-63
2021/07/10 01:49:13;;;;;;;40.00;18.30;;;;;;;;;;3593725;39;20314;-63
2021/07/10 01:51:38;;;;;;;32.17;16.57;;;;;;;;;;3594600;39;20275;-63
2021/07/10 01:54:03;;;;;;;36.20;17.47;;;;;;;;;;3586261;40;20309;-63
2021/07/10 01:56:29;;;;;;;33.17;17.83;;;;;;;;;;3585142;40;20104;-64
2021/07/10 01:58:54;;;;;;;49.13;19.87;;;;;;;;;;3585485;40;20035;-63
2021/07/10 02:01:19;;;;;;;36.20;18.50;;;;;;;;;;3587966;40;20058;-64
2021/07/10 02:03:44;;;;;;;34.43;17.60;;;;;;;;;;3591436;39;20644;-63
2021/07/10 02:06:10;;;;;;;39.97;18.70;;;;;;;;;;3592506;39;20487;-63
2021/07/10 02:08:36;;;;;;;49.10;19.13;;;;;;;;;;3587297;40;20303;-64
2021/07/10 02:11:01;;;;;;;41.50;18.77;;;;;;;;;;3586133;40;20026;-64
2021/07/10 02:13:26;;;;;;;45.23;18.97;;;;;;;;;;3587354;40;20036;-64
2021/07/10 02:15:51;;;;;;;34.90;18.90;;;;;;;;;;3587942;40;20630;-64
2021/07/10 02:18:16;;;;;;;56.53;20.83;;;;;;;;;;3585969;40;20053;-64
2021/07/10 02:20:41;;;;;;;39.30;18.50;;;;;;;;;;3587008;40;20025;-64
2021/07/10 02:23:07;;;;;;;40.27;18.40;;;;;;;;;;3585646;40;20091;-64
2021/07/10 02:25:32;;;;;;;44.97;19.53;;;;;;;;;;3586824;40;20032;-64
2021/07/10 02:27:57;;;;;;;50.17;18.93;;;;;;;;;;3585002;40;20028;-63
2021/07/10 02:30:22;;;;;;;41.20;18.50;;;;;;;;;;3587972;40;20043;-63
2021/07/10 02:32:48;;;;;;;39.13;18.37;;;;;;;;;;3586103;40;20028;-64
2021/07/10 02:35:13;;;;;;;44.07;19.67;;;;;;;;;;3584028;40;20036;-64
2021/07/10 02:37:38;;;;;;;38.33;18.20;;;;;;;;;;3586378;40;20529;-64
2021/07/10 02:40:03;;;;;;;52.30;19.73;;;;;;;;;;3587960;40;20294;-64
2021/07/10 02:42:28;;;;;;;42.93;18.53;;;;;;;;;;3585797;40;20102;-63
2021/07/10 02:44:54;;;;;;;31.35;17.23;;;;;;;;;;3586717;40;20323;-63
2021/07/10 02:47:19;;;;;;;32.50;16.53;;;;;;;;;;3587237;40;20128;-63
2021/07/10 02:49:44;;;;;;;56.73;21.10;;;;;;;;;;3584212;40;20044;-63
2021/07/10 02:52:11;;;;;;;53.13;20.87;;;;;;;;;;3587361;40;20032;-63
2021/07/10 02:54:36;;;;;;;49.30;19.80;;;;;;;;;;3586323;40;20052;-63
2021/07/10 02:57:01;;;;;;;41.97;19.37;;;;;;;;;;3587202;40;20040;-63
2021/07/10 02:59:27;;;;;;;40.63;20.02;;;;;;;;;;3585865;40;20096;-63
2021/07/10 03:01:52;;;;;;;39.27;18.87;;;;;;;;;;3585687;40;20089;-63
2021/07/10 03:04:17;;;;;;;48.37;20.90;;;;;;;;;;3585300;39;20028;-63
2021/07/10 03:06:42;;;;;;;34.33;19.00;;;;;;;;;;3585338;40;20286;-63
2021/07/10 03:09:08;;;;;;;43.42;20.15;;;;;;;;;;3582682;40;20110;-63
2021/07/10 03:11:33;;;;;;;63.73;21.10;;;;;;;;;;3586387;40;20024;-63
2021/07/10 03:13:58;;;;;;;42.27;20.40;;;;;;;;;;3585451;40;20036;-63
2021/07/10 03:16:23;;;;;;;61.27;21.70;;;;;;;;;;3584984;40;20376;-63
2021/07/10 03:18:49;;;;;;;42.88;20.65;;;;;;;;;;3585472;40;20074;-63
2021/07/10 03:21:14;;;;;;;41.53;19.33;;;;;;;;;;3586088;40;20020;-62
2021/07/10 03:23:39;;;;;;;46.87;20.47;;;;;;;;;;3585559;40;20068;-63
2021/07/10 03:26:04;;;;;;;45.57;20.80;;;;;;;;;;3582277;40;20068;-63
2021/07/10 03:28:29;;;;;;;41.47;19.93;;;;;;;;;;3586338;40;20093;-63
2021/07/10 03:30:54;;;;;;;42.63;20.37;;;;;;;;;;3583982;40;20040;-64
2021/07/10 03:33:20;;;;;;;38.77;19.10;;;;;;;;;;3583048;40;20045;-63
2021/07/10 03:35:45;;;;;;;52.63;20.95;;;;;;;;;;3582578;40;20025;-64
2021/07/10 03:38:10;;;;;;;55.00;19.93;;;;;;;;;;3585287;40;20032;-63
2021/07/10 03:40:35;;;;;;;64.93;20.20;;;;;;;;;;3582868;40;20047;-63
2021/07/10 03:43:01;;;;;;;38.60;17.83;;;;;;;;;;3585271;40;20302;-63
2021/07/10 03:45:26;;;;;;;34.00;17.80;;;;;;;;;;3585073;40;20032;-63
2021/07/10 03:47:51;;;;;;;39.63;17.80;;;;;;;;;;3584772;40;20045;-63
2021/07/10 03:50:16;;;;;;;44.57;17.63;;;;;;;;;;3592298;39;20429;-63
2021/07/10 03:52:41;;;;;;;45.80;18.50;;;;;;;;;;3594721;39;20094;-64
2021/07/10 03:55:07;;;;;;;42.67;17.90;;;;;;;;;;3583448;40;20458;-64
2021/07/10 03:57:33;;;;;;;41.53;18.02;;;;;;;;;;3582426;40;20541;-63
2021/07/10 03:59:58;;;;;;;52.23;18.07;;;;;;;;;;3584982;40;20024;-63
2021/07/10 04:02:23;;;;;;;50.43;18.33;;;;;;;;;;3585829;40;20270;-64
2021/07/10 04:04:48;;;;;;;37.67;17.43;;;;;;;;;;3583583;40;20261;-64
2021/07/10 04:07:14;;;;;;;36.85;18.08;;;;;;;;;;3598083;39;20416;-64
2021/07/10 04:09:39;;;;;;;39.07;17.93;;;;;;;;;;3583771;40;20113;-64
2021/07/10 04:12:04;;;;;;;37.87;17.90;;;;;;;;;;3584919;40;20068;-64
2021/07/10 04:14:31;;;;;;;61.35;19.98;;;;;;;;;;3585102;40;20040;-64
2021/07/10 04:16:56;;;;;;;43.03;17.88;;;;;;;;;;3594614;39;20041;-64
2021/07/10 04:19:22;;;;;;;48.63;18.27;;;;;;;;;;3586073;40;20503;-63
2021/07/10 04:21:47;;;;;;;41.50;18.27;;;;;;;;;;3587389;39;20028;-63
2021/07/10 04:24:12;;;;;;;42.60;18.67;;;;;;;;;;3586032;40;21015;-63
2021/07/10 04:26:37;;;;;;;52.37;19.57;;;;;;;;;;3587760;40;20017;-65
2021/07/10 04:29:03;;;;;;;43.20;19.92;;;;;;;;;;3587258;40;20064;-63
2021/07/10 04:31:28;;;;;;;46.67;20.23;;;;;;;;;;3588236;40;20028;-63
2021/07/10 04:33:53;;;;;;;50.73;20.37;;;;;;;;;;3594079;39;20036;-63
2021/07/10 04:36:18;;;;;;;43.57;20.93;;;;;;;;;;3594060;39;20414;-64
2021/07/10 04:38:43;;;;;;;63.90;21.63;;;;;;;;;;3585867;40;20970;-64
2021/07/10 04:41:09;;;;;;;45.07;19.13;;;;;;;;;;3586190;40;20294;-64
2021/07/10 04:43:34;;;;;;;39.50;20.87;;;;;;;;;;3587208;40;20359;-64
2021/07/10 04:45:59;;;;;;;48.10;20.30;;;;;;;;;;3593657;39;20032;-63
2021/07/10 04:48:24;;;;;;;40.55;19.20;;;;;;;;;;3589358;40;20113;-64
2021/07/10 04:50:49;;;;;;;45.23;20.77;;;;;;;;;;3586405;40;20027;-63
2021/07/10 04:53:15;;;;;;;52.90;21.93;;;;;;;;;;3588301;40;20036;-64
2021/07/10 04:55:40;;;;;;;40.57;19.73;;;;;;;;;;3595187;39;20680;-63
2021/07/10 04:58:05;;;;;;;39.40;19.75;;;;;;;;;;3587670;40;20031;-64
2021/07/10 05:00:31;;;;;;;34.30;18.67;;;;;;;;;;3588241;40;20036;-63
2021/07/10 05:02:56;;;;;;;41.08;19.85;;;;;;;;;;3594090;39;20737;-63
2021/07/10 05:05:21;;;;;;;37.00;18.07;;;;;;;;;;3584965;40;20833;-63
2021/07/10 05:07:46;;;;;;;36.03;17.53;;;;;;;;;;3585593;40;20739;-63
2021/07/10 05:10:12;;;;;;;37.37;18.47;;;;;;;;;;3585422;40;20665;-63
2021/07/10 05:12:37;;;;;;;36.78;17.60;;;;;;;;;;3587976;40;20277;-63
2021/07/10 05:15:02;;;;;;;36.50;18.07;;;;;;;;;;3601300;39;20032;-64
2021/07/10 05:17:27;;;;;;;38.87;19.53;;;;;;;;;;3589417;40;20043;-64
2021/07/10 05:19:52;;;;;;;35.30;18.00;;;;;;;;;;3588667;40;20320;-64
2021/07/10 05:22:18;;;;;;;30.67;16.70;;;;;;;;;;3583186;40;20293;-64
2021/07/10 05:24:43;;;;;;;37.93;18.80;;;;;;;;;;3586071;40;20053;-64
2021/07/10 05:27:08;;;;;;;31.50;16.97;;;;;;;;;;3593032;39;20933;-64
2021/07/10 05:29:33;;;;;;;37.70;17.42;;;;;;;;;;3583324;40;20025;-64
2021/07/10 05:31:59;;;;;;;36.53;18.10;;;;;;;;;;3588668;40;20025;-64
2021/07/10 05:34:24;;;;;;;29.63;16.57;;;;;;;;;;3584417;40;20037;-64
2021/07/10 05:36:49;;;;;;;27.10;15.32;;;;;;;;;;3589007;39;20802;-65
2021/07/10 05:39:15;;;;;;;31.40;17.17;;;;;;;;;;3589963;40;20073;-65
2021/07/10 05:41:40;;;;;;;27.80;15.53;;;;;;;;;;3587779;40;20254;-65
2021/07/10 05:44:05;;;;;;;34.13;15.73;;;;;;;;;;3587711;40;20269;-64
2021/07/10 05:46:30;;;;;;;26.00;15.90;;;;;;;;;;3587128;40;20024;-65
2021/07/10 05:48:56;;;;;;;26.30;14.70;;;;;;;;;;3585018;40;20278;-64
2021/07/10 05:51:21;;;;;;;24.58;14.95;;;;;;;;;;3589233;39;20250;-64
2021/07/10 05:53:46;;;;;;;26.02;14.43;;;;;;;;;;3587742;40;20046;-65
2021/07/10 05:56:11;;;;;;;31.77;15.40;;;;;;;;;;3584542;40;20380;-64
2021/07/10 05:58:37;;;;;;;30.37;13.57;;;;;;;;;;3586210;40;20028;-64
2021/07/10 06:01:02;;;;;;;22.67;13.73;;;;;;;;;;3582429;40;20610;-65
2021/07/10 06:03:27;;;;;;;21.93;13.60;;;;;;;;;;3585624;40;20262;-64
2021/07/10 06:05:52;;;;;;;22.67;13.10;;;;;;;;;;3585010;39;20069;-64
2021/07/10 06:08:18;;;;;;;25.75;13.80;;;;;;;;;;3582497;40;20039;-65
2021/07/10 06:10:43;;;;;;;22.20;12.47;;;;;;;;;;3583879;40;20025;-65
2021/07/10 06:13:08;;;;;;;17.63;11.57;;;;;;;;;;3586504;40;20269;-64
2021/07/10 06:15:33;;;;;;;21.60;12.60;;;;;;;;;;3585388;40;20031;-64
2021/07/10 06:17:58;;;;;;;17.37;11.57;;;;;;;;;;3586939;40;20036;-65
2021/07/10 06:20:24;;;;;;;22.23;12.10;;;;;;;;;;3585413;40;20286;-63
2021/07/10 06:22:49;;;;;;;17.37;11.93;;;;;;;;;;3588072;39;20024;-64
2021/07/10 06:25:15;;;;;;;21.02;11.45;;;;;;;;;;3584572;40;20029;-64
2021/07/10 06:27:40;;;;;;;23.00;12.15;;;;;;;;;;3583356;40;20032;-64
2021/07/10 06:30:05;;;;;;;22.77;12.77;;;;;;;;;;3582310;40;20025;-64
2021/07/10 06:32:31;;;;;;;20.83;12.03;;;;;;;;;;3585740;40;20048;-64
2021/07/10 06:34:56;;;;;;;18.50;12.07;;;;;;;;;;3584541;40;20028;-64
2021/07/10 06:37:22;;;;;;;24.03;12.67;;;;;;;;;;3586162;40;20156;-63
2021/07/10 06:39:47;;;;;;;22.38;12.02;;;;;;;;;;3583599;39;20039;-63
2021/07/10 06:42:12;;;;;;;23.77;12.33;;;;;;;;;;3586458;40;20842;-63
2021/07/10 06:44:37;;;;;;;16.80;11.20;;;;;;;;;;3584561;40;20238;-68
2021/07/10 06:47:02;;;;;;;20.67;12.43;;;;;;;;;;3585672;40;20028;-68
2021/07/10 06:49:28;;;;;;;27.13;12.13;;;;;;;;;;3584678;40;20471;-69
2021/07/10 06:51:54;;;;;;;18.77;12.23;;;;;;;;;;3586222;40;21216;-68
2021/07/10 06:54:20;;;;;;;21.15;12.30;;;;;;;;;;3584639;40;20121;-68
2021/07/10 06:56:45;;;;;;;22.23;11.70;;;;;;;;;;3582333;40;20017;-69
2021/07/10 06:59:11;;;;;;;21.17;11.80;;;;;;;;;;3585948;40;20025;-69
2021/07/10 07:01:36;;;;;;;23.38;11.88;;;;;;;;;;3588860;40;20816;-69
2021/07/10 07:04:01;;;;;;;17.90;11.97;;;;;;;;;;3584987;40;20073;-69
2021/07/10 07:06:26;;;;;;;18.57;12.67;;;;;;;;;;3587093;40;20044;-68
2021/07/10 07:08:52;;;;;;;22.90;11.57;;;;;;;;;;3582510;40;20269;-68
2021/07/10 07:11:17;;;;;;;17.38;11.23;;;;;;;;;;3584776;40;21070;-68
2021/07/10 07:13:42;;;;;;;18.97;11.00;;;;;;;;;;3587730;40;20824;-68
2021/07/10 07:16:07;;;;;;;21.70;9.60;;;;;;;;;;3583862;40;20032;-68
2021/07/10 07:18:33;;;;;;;18.30;10.47;;;;;;;;;;3582968;40;20121;-68
2021/07/10 07:20:59;;;;;;;14.90;10.27;;;;;;;;;;3591613;39;20137;-73
2021/07/10 07:23:24;;;;;;;15.90;10.70;;;;;;;;;;3584736;40;20028;-67
2021/07/10 07:25:49;;;;;;;17.13;9.77;;;;;;;;;;3586202;40;20036;-67
2021/07/10 07:28:15;;;;;;;16.73;9.40;;;;;;;;;;3587148;40;20436;-68
2021/07/10 07:30:40;;;;;;;14.63;9.37;;;;;;;;;;3585863;40;20032;-68
2021/07/10 07:33:05;;;;;;;24.87;10.40;;;;;;;;;;3585679;40;20286;-68
2021/07/10 07:35:30;;;;;;;18.37;10.40;;;;;;;;;;3583212;40;20032;-68
2021/07/10 07:37:55;;;;;;;15.13;9.95;;;;;;;;;;3583323;40;20125;-68
2021/07/10 07:40:21;;;;;;;16.33;10.03;;;;;;;;;;3588506;40;20048;-68
2021/07/10 07:42:46;;;;;;;19.93;10.53;;;;;;;;;;3585887;40;20027;-68
2021/07/10 07:45:11;;;;;;;14.97;10.53;;;;;;;;;;3586438;40;20125;-68
2021/07/10 07:47:36;;;;;;;16.53;9.53;;;;;;;;;;3591675;39;20032;-68
2021/07/10 07:50:02;;;;;;;20.33;10.07;;;;;;;;;;3585490;40;20518;-68
2021/07/10 07:52:27;;;;;;;13.80;9.40;;;;;;;;;;3594269;39;20031;-68
2021/07/10 07:54:52;;;;;;;18.37;10.03;;;;;;;;;;3585885;40;20402;-68
2021/07/10 07:57:17;;;;;;;18.53;10.17;;;;;;;;;;3586974;40;20027;-68
2021/07/10 07:59:42;;;;;;;15.50;9.60;;;;;;;;;;3585259;40;20040;-68
2021/07/10 08:02:09;;;;;;;15.37;9.67;;;;;;;;;;3585441;40;20028;-69
2021/07/10 08:04:35;;;;;;;15.57;10.15;;;;;;;;;;3586394;40;20273;-68
2021/07/10 08:07:00;;;;;;;18.10;10.63;;;;;;;;;;3587902;40;20032;-68
2021/07/10 08:09:25;;;;;;;16.65;9.40;;;;;;;;;;3585863;40;20031;-68
2021/07/10 08:11:50;;;;;;;16.17;10.27;;;;;;;;;;3585223;40;20035;-69
2021/07/10 08:14:16;;;;;;;16.03;9.77;;;;;;;;;;3586392;40;20056;-62
2021/07/10 08:16:41;;;;;;;19.57;9.33;;;;;;;;;;3594430;39;20040;-63
2021/07/10 08:19:06;;;;;;;14.07;8.90;;;;;;;;;;3584282;40;20025;-62
2021/07/10 08:21:33;;;;;;;14.60;9.50;;;;;;;;;;3582930;40;20291;-63
2021/07/10 08:23:58;;;;;;;14.75;10.20;;;;;;;;;;3585530;40;20032;-63
2021/07/10 08:26:23;;;;;;;16.20;9.10;;;;;;;;;;3586606;40;20047;-63
2021/07/10 08:28:49;;;;;;;16.30;8.50;;;;;;;;;;3585054;40;20064;-62
2021/07/10 08:31:14;;;;;;;17.10;9.20;;;;;;;;;;3586243;40;20639;-62
2021/07/10 08:33:39;;;;;;;17.00;8.93;;;;;;;;;;3586008;39;20159;-63
2021/07/10 08:36:04;;;;;;;14.57;8.23;;;;;;;;;;3583405;40;20035;-62
2021/07/10 08:38:30;;;;;;;17.13;9.18;;;;;;;;;;3594469;39;20644;-62
2021/07/10 08:40:55;;;;;;;13.73;9.00;;;;;;;;;;3584307;40;20424;-62
2021/07/10 08:43:20;;;;;;;12.23;8.13;;;;;;;;;;3603242;39;20313;-62
2021/07/10 08:45:45;;;;;;;17.48;8.50;;;;;;;;;;3584702;40;20064;-63
2021/07/10 08:48:11;;;;;;;12.63;7.30;;;;;;;;;;3585382;40;20036;-63
2021/07/10 08:50:36;;;;;;;18.33;7.95;;;;;;;;;;3584940;40;20028;-62
2021/07/10 08:53:01;;;;;;;23.13;8.30;;;;;;;;;;3583214;40;20029;-62
2021/07/10 08:55:27;;;;;;;12.00;7.47;;;;;;;;;;3584521;40;20043;-63
2021/07/10 08:57:52;;;;;;;10.70;6.90;;;;;;;;;;3594543;39;20020;-62
2021/07/10 09:00:17;;;;;;;15.23;7.38;;;;;;;;;;3583422;40;20133;-62
2021/07/10 09:02:42;;;;;;;10.47;7.00;;;;;;;;;;3593659;39;20028;-62
2021/07/10 09:05:08;;;;;;;17.10;7.27;;;;;;;;;;3589189;40;20270;-63
2021/07/10 09:07:33;;;;;;;13.83;7.33;;;;;;;;;;3585180;40;20283;-73
2021/07/10 09:09:58;;;;;;;16.85;6.90;;;;;;;;;;3601346;39;20039;-72
2021/07/10 09:12:24;;;;;;;12.73;7.20;;;;;;;;;;3586416;40;20046;-72
2021/07/10 09:14:49;;;;;;;11.63;7.90;;;;;;;;;;3593045;39;20970;-69
2021/07/10 09:17:14;;;;;;;11.90;7.47;;;;;;;;;;3585573;40;20410;-69
2021/07/10 09:19:40;;;;;;;12.10;7.15;;;;;;;;;;3584363;40;20032;-69
2021/07/10 09:22:05;;;;;;;16.13;6.53;;;;;;;;;;3588821;40;20025;-69
2021/07/10 09:24:30;;;;;;;10.70;6.40;;;;;;;;;;3587101;40;20045;-69
2021/07/10 09:26:55;;;;;;;11.97;5.60;;;;;;;;;;3587587;40;20044;-69
2021/07/10 09:29:20;;;;;;;12.83;6.20;;;;;;;;;;3587738;40;20088;-68
2021/07/10 09:31:46;;;;;;;11.83;6.33;;;;;;;;;;3587814;40;20044;-70
2021/07/10 09:34:11;;;;;;;15.85;6.53;;;;;;;;;;3593651;39;20030;-72
2021/07/10 09:36:36;;;;;;;10.45;5.43;;;;;;;;;;3599959;39;20442;-69
2021/07/10 09:39:02;;;;;;;11.00;5.47;;;;;;;;;;3590780;39;20628;-69
2021/07/10 09:41:27;;;;;;;9.05;5.85;;;;;;;;;;3583373;40;20040;-70
2021/07/10 09:43:56;;;;;;;10.60;5.07;;;;;;;;;;3586721;40;20021;-70
2021/07/10 09:46:21;;;;;;;7.93;5.35;;;;;;;;;;3584013;40;20429;-69
2021/07/10 09:48:46;;;;;;;12.03;6.03;;;;;;;;;;3585256;39;20046;-69
2021/07/10 09:51:11;;;;;;;12.32;7.57;;;;;;;;;;3585175;40;20036;-68
2021/07/10 09:53:37;;;;;;;13.90;5.70;;;;;;;;;;3582136;40;20025;-68
2021/07/10 09:56:02;;;;;;;13.00;5.70;;;;;;;;;;3584699;40;20043;-68
2021/07/10 09:58:27;;;;;;;12.77;6.27;;;;;;;;;;3585278;40;20035;-68
2021/07/10 10:00:52;;;;;;;14.70;6.03;;;;;;;;;;3586123;40;20050;-69
2021/07/10 10:03:18;;;;;;;9.80;5.67;;;;;;;;;;3583741;40;20024;-69
2021/07/10 10:05:44;;;;;;;10.53;6.07;;;;;;;;;;3589570;39;20673;-69
2021/07/10 10:08:09;;;;;;;11.60;5.97;;;;;;;;;;3585948;40;20051;-69
2021/07/10 10:10:34;;;;;;;14.10;7.37;;;;;;;;;;3586073;40;20339;-69
2021/07/10 10:12:59;;;;;;;7.33;5.50;;;;;;;;;;3582587;40;20667;-69
2021/07/10 10:15:25;;;;;;;9.13;5.37;;;;;;;;;;3600690;39;20117;-69
2021/07/10 10:17:50;;;;;;;7.87;5.27;;;;;;;;;;3585330;40;20035;-68
2021/07/10 10:20:15;;;;;;;7.67;5.17;;;;;;;;;;3585416;40;20043;-69
2021/07/10 10:22:40;;;;;;;7.43;5.20;;;;;;;;;;3586192;40;20040;-69
2021/07/10 10:25:05;;;;;;;11.40;5.23;;;;;;;;;;3585920;40;20027;-69
2021/07/10 10:27:31;;;;;;;10.43;5.13;;;;;;;;;;3592261;39;20141;-69
2021/07/10 10:29:56;;;;;;;10.77;4.70;;;;;;;;;;3585334;40;20814;-70
2021/07/10 10:32:21;;;;;;;12.63;5.57;;;;;;;;;;3586053;40;20028;-69
2021/07/10 10:34:46;;;;;;;10.90;5.20;;;;;;;;;;3584647;40;20036;-70
2021/07/10 10:37:12;;;;;;;10.67;6.43;;;;;;;;;;3584422;40;20028;-70
2021/07/10 10:39:37;;;;;;;8.37;4.63;;;;;;;;;;3586752;39;20048;-70
2021/07/10 10:42:02;;;;;;;8.07;4.28;;;;;;;;;;3591520;39;20037;-70
2021/07/10 10:44:27;;;;;;;10.63;4.40;;;;;;;;;;3586366;40;20516;-69
2021/07/10 10:46:53;;;;;;;6.47;4.67;;;;;;;;;;3585353;40;20095;-70
2021/07/10 10:49:18;;;;;;;6.22;4.05;;;;;;;;;;3592542;39;20028;-70
2021/07/10 10:51:43;;;;;;;7.73;4.50;;;;;;;;;;3584262;40;20068;-70
2021/07/10 10:54:08;;;;;;;8.73;4.80;;;;;;;;;;3586447;40;20024;-68
2021/07/10 10:56:34;;;;;;;7.27;4.57;;;;;;;;;;3584796;40;20036;-69
2021/07/10 10:58:59;;;;;;;10.07;4.13;;;;;;;;;;3585575;40;20047;-69
2021/07/10 11:01:24;;;;;;;8.40;4.70;;;;;;;;;;3592945;39;20570;-70
2021/07/10 11:03:49;;;;;;;7.90;4.20;;;;;;;;;;3584563;40;20036;-69
2021/07/10 11:06:14;;;;;;;7.67;5.73;;;;;;;;;;3582236;40;20511;-70
2021/07/10 11:08:40;;;;;;;6.40;4.30;;;;;;;;;;3583461;40;20044;-71
2021/07/10 11:11:05;;;;;;;12.00;6.38;;;;;;;;;;3585048;40;20374;-69
2021/07/10 11:13:30;;;;;;;4.37;3.90;;;;;;;;;;3587036;40;20313;-69
2021/07/10 11:15:55;;;;;;;4.83;3.70;;;;;;;;;;3583396;40;20082;-69
2021/07/10 11:18:21;;;;;;;5.57;3.83;;;;;;;;;;3593188;39;20039;-69
2021/07/10 11:20:46;;;;;;;8.13;3.90;;;;;;;;;;3584638;40;20035;-67
2021/07/10 11:23:11;;;;;;;7.68;4.03;;;;;;;;;;3584803;40;20036;-69
2021/07/10 11:25:37;;;;;;;7.63;3.70;;;;;;;;;;3588855;40;20032;-69
2021/07/10 11:28:02;;;;;;;4.73;3.53;;;;;;;;;;3585837;40;20064;-69
2021/07/10 11:30:27;;;;;;;7.87;3.57;;;;;;;;;;3587490;40;20031;-69
2021/07/10 11:32:52;;;;;;;13.47;5.83;;;;;;;;;;3587827;39;20028;-69
2021/07/10 11:35:18;;;;;;;8.87;4.23;;;;;;;;;;3586353;40;20274;-70
2021/07/10 11:37:43;;;;;;;9.80;4.15;;;;;;;;;;3586926;40;20039;-69
2021/07/10 11:40:09;;;;;;;10.75;4.18;;;;;;;;;;3588484;39;20051;-70
2021/07/10 11:42:34;;;;;;;6.87;4.23;;;;;;;;;;3587861;40;20043;-70
2021/07/10 11:45:05;;;;;;;8.00;4.03;;;;;;;;;;3586328;40;20297;-69
2021/07/10 11:47:34;;;;;;;6.80;3.35;;;;;;;;;;3588358;40;20056;-69
2021/07/10 11:50:00;;;;;;;7.82;3.42;;;;;;;;;;3584018;40;20032;-69
2021/07/10 11:52:25;;;;;;;6.17;3.43;;;;;;;;;;3584433;40;20313;-70
2021/07/10 11:54:50;;;;;;;8.37;3.27;;;;;;;;;;3584544;39;20051;-70
2021/07/10 11:57:15;;;;;;;7.53;3.80;;;;;;;;;;3584314;40;20642;-71
2021/07/10 11:59:41;;;;;;;7.70;3.80;;;;;;;;;;3586204;40;20024;-70
2021/07/10 12:02:06;;;;;;;4.57;3.07;;;;;;;;;;3586154;40;20024;-70
2021/07/10 12:04:31;;;;;;;5.77;3.53;;;;;;;;;;3587122;40;20285;-69
2021/07/10 12:06:56;;;;;;;4.53;3.27;;;;;;;;;;3585233;40;20866;-69
2021/07/10 12:09:22;;;;;;;7.17;3.70;;;;;;;;;;3588542;40;21013;-70
2021/07/10 12:11:47;;;;;;;4.67;3.10;;;;;;;;;;3584994;40;20040;-71
2021/07/10 12:14:12;;;;;;;12.80;3.27;;;;;;;;;;3584738;40;20059;-70
2021/07/10 12:16:37;;;;;;;6.33;3.40;;;;;;;;;;3584446;40;20031;-72
2021/07/10 12:19:02;;;;;;;7.43;3.27;;;;;;;;;;3583440;40;20060;-72
2021/07/10 12:21:28;;;;;;;6.27;3.37;;;;;;;;;;3593083;39;20031;-78
2021/07/10 12:23:55;;;;;;;3.57;2.77;;;;;;;;;;3584770;40;20068;-67
2021/07/10 12:26:21;;;;;;;19.55;5.18;;;;;;;;;;3585540;40;20032;-67
2021/07/10 12:28:46;;;;;;;4.80;2.80;;;;;;;;;;3585577;40;20352;-67
2021/07/10 12:31:12;;;;;;;4.67;3.40;;;;;;;;;;3585499;40;20035;-67
2021/07/10 12:33:37;;;;;;;6.40;3.22;;;;;;;;;;3586394;40;20024;-67
2021/07/10 12:36:02;;;;;;;5.13;2.80;;;;;;;;;;3586316;40;20036;-67
2021/07/10 12:38:27;;;;;;;6.03;2.67;;;;;;;;;;3585826;39;20718;-67
2021/07/10 12:40:53;;;;;;;4.95;2.75;;;;;;;;;;3592902;39;20037;-67
2021/07/10 12:43:18;;;;;;;5.50;3.30;;;;;;;;;;3588042;40;20020;-67
2021/07/10 12:45:44;;;;;;;3.57;2.57;;;;;;;;;;3586542;40;20032;-67
2021/07/10 12:48:09;;;;;;;3.37;2.83;;;;;;;;;;3584703;40;20068;-64
2021/07/10 12:50:34;;;;;;;6.03;2.87;;;;;;;;;;3601672;39;20036;-66
2021/07/10 12:53:05;;;;;;;4.80;2.70;;;;;;;;;;3586710;40;20044;-67
2021/07/10 12:55:38;;;;;;;3.13;2.20;;;;;;;;;;3585379;40;20110;-66
2021/07/10 12:58:03;;;;;;;3.25;2.72;;;;;;;;;;3585995;40;20054;-66
2021/07/10 13:00:28;;;;;;;5.40;2.90;;;;;;;;;;3585224;40;20134;-67
2021/07/10 13:02:54;;;;;;;4.07;2.73;;;;;;;;;;3587047;40;20499;-66
2021/07/10 13:05:19;;;;;;;3.88;2.50;;;;;;;;;;3587143;40;20028;-66
2021/07/10 13:07:44;;;;;;;5.95;2.67;;;;;;;;;;3588243;40;20020;-65
2021/07/10 13:10:09;;;;;;;3.63;2.30;;;;;;;;;;3583211;40;20032;-65
2021/07/10 13:12:35;;;;;;;5.13;2.77;;;;;;;;;;3584904;40;20056;-65
2021/07/10 13:15:00;;;;;;;5.87;2.90;;;;;;;;;;3585901;40;20146;-65
2021/07/10 13:17:25;;;;;;;5.80;2.28;;;;;;;;;;3586634;40;20331;-65
2021/07/10 13:19:51;;;;;;;9.37;2.40;;;;;;;;;;3586147;40;20051;-65
2021/07/10 13:22:16;;;;;;;4.80;2.20;;;;;;;;;;3585964;40;20032;-66
2021/07/10 13:24:41;;;;;;;4.73;2.50;;;;;;;;;;3585518;40;20032;-64
2021/07/10 13:27:06;;;;;;;2.97;2.10;;;;;;;;;;3585723;40;20043;-65
2021/07/10 13:29:33;;;;;;;4.60;2.27;;;;;;;;;;3584599;40;20065;-67
2021/07/10 13:31:58;;;;;;;4.55;2.25;;;;;;;;;;3586272;40;20552;-67
2021/07/10 13:34:23;;;;;;;2.60;2.38;;;;;;;;;;3585681;40;20107;-65
2021/07/10 13:36:49;;;;;;;4.60;2.00;;;;;;;;;;3586844;40;20031;-65
2021/07/10 13:39:14;;;;;;;4.03;2.13;;;;;;;;;;3586159;40;20056;-65
2021/07/10 13:41:39;;;;;;;3.10;2.10;;;;;;;;;;3583242;40;20119;-65
2021/07/10 13:44:04;;;;;;;9.45;2.22;;;;;;;;;;3588569;40;20123;-65
2021/07/10 13:46:30;;;;;;;2.20;2.00;;;;;;;;;;3584972;40;20025;-62
2021/07/10 13:48:56;;;;;;;4.70;2.30;;;;;;;;;;3591562;39;20028;-63
2021/07/10 13:51:21;;;;;;;8.87;2.17;;;;;;;;;;3592282;39;20036;-63
2021/07/10 13:53:46;;;;;;;13.20;2.50;;;;;;;;;;3586740;40;20534;-63
2021/07/10 13:56:11;;;;;;;7.27;2.23;;;;;;;;;;3586045;40;20424;-62
2021/07/10 13:58:37;;;;;;;2.80;1.70;;;;;;;;;;3587534;40;20032;-62
2021/07/10 14:01:02;;;;;;;9.37;2.10;;;;;;;;;;3587067;40;20029;-63
2021/07/10 14:03:27;;;;;;;2.97;2.00;;;;;;;;;;3592505;39;20047;-63
2021/07/10 14:05:52;;;;;;;5.73;2.20;;;;;;;;;;3584375;40;20028;-62
2021/07/10 14:08:17;;;;;;;5.47;2.30;;;;;;;;;;3585922;40;20051;-64
2021/07/10 14:10:43;;;;;;;2.77;1.80;;;;;;;;;;3586629;40;20592;-62
2021/07/10 14:13:08;;;;;;;5.30;2.10;;;;;;;;;;3593546;39;20544;-62